Time;durP1;ratioP1;P1;durP2;ratioP2;P2;SDS_P1;SDS_P2;PMS_P1;PMS_P2;Temp;Humidity;BMP_temperature;BMP_pressure;BME280_temperature;BME280_humidity;BME280_pressure;Samples;Min_cycle;Max_cycle;Signal;HPM_P1;HPM_P2
2023/09/22 00:01:20;;;;;;;16.33;11.20;;;;;;;;;;5080662;28;20029;-70
2023/09/22 00:03:46;;;;;;;15.55;9.85;;;;;;;;;;5080219;28;20028;-70
2023/09/22 00:06:11;;;;;;;11.80;9.13;;;;;;;;;;5086830;28;20085;-70
2023/09/22 00:08:36;;;;;;;15.35;9.73;;;;;;;;;;5086216;28;20046;-71
2023/09/22 00:11:05;;;;;;;18.20;10.75;;;;;;;;;;5090667;28;20043;-70
2023/09/22 00:13:31;;;;;;;14.88;10.25;;;;;;;;;;5078922;28;20016;-69
2023/09/22 00:15:57;;;;;;;14.30;9.60;;;;;;;;;;5086966;28;20048;-70
2023/09/22 00:18:22;;;;;;;15.35;9.10;;;;;;;;;;5075877;28;20557;-71
2023/09/22 00:20:47;;;;;;;15.48;8.73;;;;;;;;;;5079173;28;20016;-71
2023/09/22 00:23:14;;;;;;;12.40;8.30;;;;;;;;;;5073889;28;20029;-70
2023/09/22 00:25:40;;;;;;;12.52;8.43;;;;;;;;;;5073874;28;20024;-71
2023/09/22 00:28:06;;;;;;;10.38;7.25;;;;;;;;;;5074424;28;20037;-70
2023/09/22 00:30:31;;;;;;;9.32;6.68;;;;;;;;;;5091054;28;20081;-71
2023/09/22 00:32:57;;;;;;;9.20;5.95;;;;;;;;;;5090638;28;20417;-70
2023/09/22 00:35:23;;;;;;;8.85;6.13;;;;;;;;;;5090843;28;20048;-69
2023/09/22 00:37:48;;;;;;;11.23;6.15;;;;;;;;;;5090247;28;20055;-69
2023/09/22 00:40:14;;;;;;;8.82;5.53;;;;;;;;;;5081826;28;20487;-69
2023/09/22 00:42:39;;;;;;;10.20;5.47;;;;;;;;;;5077949;28;20020;-69
2023/09/22 00:45:05;;;;;;;9.32;4.95;;;;;;;;;;5085604;28;20054;-69
2023/09/22 00:47:30;;;;;;;7.30;4.75;;;;;;;;;;5088654;28;20103;-69
2023/09/22 00:49:56;;;;;;;8.48;4.97;;;;;;;;;;5080090;28;20382;-70
2023/09/22 00:52:22;;;;;;;6.38;3.90;;;;;;;;;;5090489;28;20028;-70
2023/09/22 00:54:48;;;;;;;7.05;3.72;;;;;;;;;;5091306;28;20114;-69
2023/09/22 00:57:14;;;;;;;7.47;3.90;;;;;;;;;;5088402;28;20036;-69
2023/09/22 00:59:40;;;;;;;9.90;4.15;;;;;;;;;;5090405;28;20422;-69
2023/09/22 01:02:05;;;;;;;6.18;3.80;;;;;;;;;;5087954;28;20020;-70
2023/09/22 01:04:30;;;;;;;7.13;3.63;;;;;;;;;;5090170;28;20028;-70
2023/09/22 01:06:56;;;;;;;4.90;3.30;;;;;;;;;;5082936;28;20031;-70
2023/09/22 01:09:21;;;;;;;6.55;3.20;;;;;;;;;;5071867;28;20035;-70
2023/09/22 01:11:47;;;;;;;5.97;3.83;;;;;;;;;;5071752;28;20383;-70
2023/09/22 01:14:13;;;;;;;6.13;3.67;;;;;;;;;;5079624;28;20486;-70
2023/09/22 01:16:38;;;;;;;6.18;3.40;;;;;;;;;;5073056;28;20027;-70
2023/09/22 01:19:10;;;;;;;8.40;3.28;;;;;;;;;;5074603;28;20511;-71
2023/09/22 01:21:35;;;;;;;8.55;3.75;;;;;;;;;;5072733;28;20035;-71
2023/09/22 01:24:00;;;;;;;5.18;3.38;;;;;;;;;;5073617;28;20116;-71
2023/09/22 01:26:27;;;;;;;4.35;2.88;;;;;;;;;;5071702;28;20471;-70
2023/09/22 01:28:52;;;;;;;8.40;3.97;;;;;;;;;;5073184;28;20033;-70
2023/09/22 01:31:17;;;;;;;6.13;3.15;;;;;;;;;;5073509;28;20399;-71
2023/09/22 01:33:45;;;;;;;5.70;3.03;;;;;;;;;;5085316;28;20032;-71
2023/09/22 01:36:13;;;;;;;8.52;3.63;;;;;;;;;;5074245;28;20050;-71
2023/09/22 01:38:39;;;;;;;7.45;3.47;;;;;;;;;;5085454;28;20036;-71
2023/09/22 01:41:04;;;;;;;5.38;3.40;;;;;;;;;;5083452;28;20589;-71
2023/09/22 01:43:29;;;;;;;6.28;3.50;;;;;;;;;;5084592;28;20045;-71
2023/09/22 01:45:54;;;;;;;6.97;3.22;;;;;;;;;;5079702;28;20024;-72
2023/09/22 01:48:20;;;;;;;7.28;3.42;;;;;;;;;;5087979;28;20097;-70
2023/09/22 01:50:45;;;;;;;7.75;4.18;;;;;;;;;;5077579;28;20016;-69
2023/09/22 01:53:11;;;;;;;7.68;3.80;;;;;;;;;;5079339;28;20032;-69
2023/09/22 01:55:39;;;;;;;6.30;3.67;;;;;;;;;;5081396;28;20029;-69
2023/09/22 01:58:05;;;;;;;5.40;3.65;;;;;;;;;;5089286;28;20034;-69
2023/09/22 02:00:34;;;;;;;6.65;3.53;;;;;;;;;;5080422;28;20099;-69
2023/09/22 02:03:02;;;;;;;6.93;3.67;;;;;;;;;;5080460;28;20036;-68
2023/09/22 02:05:27;;;;;;;10.63;3.20;;;;;;;;;;5081066;28;20024;-69
2023/09/22 02:07:53;;;;;;;6.65;3.10;;;;;;;;;;5080672;28;20112;-69
2023/09/22 02:10:18;;;;;;;5.30;3.50;;;;;;;;;;5090570;28;20016;-69
2023/09/22 02:12:44;;;;;;;6.82;3.38;;;;;;;;;;5083259;28;20032;-69
2023/09/22 02:15:10;;;;;;;5.78;3.70;;;;;;;;;;5080530;28;20074;-69
2023/09/22 02:17:38;;;;;;;6.70;3.30;;;;;;;;;;5087161;28;20021;-69
2023/09/22 02:20:22;;;;;;;6.82;3.30;;;;;;;;;;5091316;28;20040;-69
2023/09/22 02:22:48;;;;;;;5.40;3.38;;;;;;;;;;5080768;28;20478;-70
2023/09/22 02:25:15;;;;;;;7.60;3.53;;;;;;;;;;5081307;28;20013;-69
2023/09/22 02:27:40;;;;;;;5.97;3.25;;;;;;;;;;5085371;28;20486;-69
2023/09/22 02:30:07;;;;;;;7.85;3.25;;;;;;;;;;5085399;28;20021;-70
2023/09/22 02:32:32;;;;;;;5.55;3.33;;;;;;;;;;5085945;28;20031;-69
2023/09/22 02:34:58;;;;;;;6.00;3.67;;;;;;;;;;5087714;28;20028;-69
2023/09/22 02:37:23;;;;;;;6.70;3.40;;;;;;;;;;5085818;28;20020;-70
2023/09/22 02:39:48;;;;;;;5.95;3.30;;;;;;;;;;5080680;28;20016;-69
2023/09/22 02:42:14;;;;;;;8.02;3.70;;;;;;;;;;5071909;28;20401;-69
2023/09/22 02:44:39;;;;;;;6.45;3.65;;;;;;;;;;5071473;28;20070;-69
2023/09/22 02:47:05;;;;;;;6.90;3.97;;;;;;;;;;5076915;28;20058;-69
2023/09/22 02:49:30;;;;;;;5.60;3.38;;;;;;;;;;5084721;28;20029;-69
2023/09/22 02:51:56;;;;;;;7.70;3.50;;;;;;;;;;5077577;28;20034;-69
2023/09/22 02:54:22;;;;;;;4.45;3.17;;;;;;;;;;5073294;28;20044;-69
2023/09/22 02:56:47;;;;;;;6.60;3.70;;;;;;;;;;5080227;28;20055;-69
2023/09/22 02:59:14;;;;;;;5.45;2.88;;;;;;;;;;5078334;28;20021;-69
2023/09/22 03:01:39;;;;;;;8.95;3.28;;;;;;;;;;5080255;28;20024;-70
2023/09/22 03:04:09;;;;;;;4.53;2.85;;;;;;;;;;5082963;28;20107;-70
2023/09/22 03:06:34;;;;;;;4.85;2.88;;;;;;;;;;5083483;28;20394;-69
2023/09/22 03:09:00;;;;;;;5.75;2.85;;;;;;;;;;5086898;28;20023;-69
2023/09/22 03:11:25;;;;;;;5.07;2.72;;;;;;;;;;5078942;28;20031;-70
2023/09/22 03:13:50;;;;;;;6.72;2.72;;;;;;;;;;5092530;28;20071;-69
2023/09/22 03:16:15;;;;;;;4.38;2.90;;;;;;;;;;5082627;28;20021;-69
2023/09/22 03:18:41;;;;;;;5.53;2.92;;;;;;;;;;5087081;28;20483;-71
2023/09/22 03:21:06;;;;;;;5.90;3.05;;;;;;;;;;5082816;28;20031;-69
2023/09/22 03:23:32;;;;;;;4.22;2.38;;;;;;;;;;5086966;28;20024;-69
2023/09/22 03:25:57;;;;;;;4.95;2.50;;;;;;;;;;5087708;28;20035;-69
2023/09/22 03:28:22;;;;;;;3.88;2.08;;;;;;;;;;5086871;28;20057;-69
2023/09/22 03:30:47;;;;;;;5.55;2.47;;;;;;;;;;5082533;28;20023;-69
2023/09/22 03:33:13;;;;;;;4.95;2.03;;;;;;;;;;5092634;28;20031;-70
2023/09/22 03:35:38;;;;;;;4.95;2.55;;;;;;;;;;5081810;28;20038;-70
2023/09/22 03:38:05;;;;;;;5.72;2.90;;;;;;;;;;5089164;28;20081;-69
2023/09/22 03:40:40;;;;;;;6.43;2.42;;;;;;;;;;5091367;28;20008;-69
2023/09/22 03:43:06;;;;;;;4.95;2.60;;;;;;;;;;5092368;28;20409;-69
2023/09/22 03:45:31;;;;;;;4.20;2.22;;;;;;;;;;5092022;28;20024;-69
2023/09/22 03:47:56;;;;;;;8.02;2.63;;;;;;;;;;5092045;28;20052;-69
2023/09/22 03:50:22;;;;;;;4.97;2.70;;;;;;;;;;5067921;28;20020;-69
2023/09/22 03:52:48;;;;;;;6.77;2.20;;;;;;;;;;5075173;28;20016;-69
2023/09/22 03:55:14;;;;;;;3.55;1.88;;;;;;;;;;5088790;28;20262;-69
2023/09/22 03:57:39;;;;;;;7.25;2.47;;;;;;;;;;5077578;28;20031;-70
2023/09/22 04:00:16;;;;;;;3.75;2.25;;;;;;;;;;5087350;28;20601;-69
2023/09/22 04:02:42;;;;;;;7.97;2.20;;;;;;;;;;5086817;28;20451;-69
2023/09/22 04:05:08;;;;;;;7.53;1.90;;;;;;;;;;5086050;28;20158;-68
2023/09/22 04:07:33;;;;;;;6.05;2.35;;;;;;;;;;5084581;28;20074;-68
2023/09/22 04:09:59;;;;;;;2.90;1.48;;;;;;;;;;5080984;28;20111;-69
2023/09/22 04:12:25;;;;;;;5.57;1.85;;;;;;;;;;5087491;28;20071;-69
2023/09/22 04:14:50;;;;;;;4.78;2.03;;;;;;;;;;5091368;28;20024;-69
2023/09/22 04:17:16;;;;;;;3.65;1.65;;;;;;;;;;5082203;28;20055;-69
2023/09/22 04:19:41;;;;;;;4.05;1.80;;;;;;;;;;5092069;28;20024;-69
2023/09/22 04:22:08;;;;;;;5.68;1.90;;;;;;;;;;5090490;28;20020;-69
2023/09/22 04:24:34;;;;;;;4.20;1.88;;;;;;;;;;5084122;28;20028;-70
2023/09/22 04:27:08;;;;;;;4.80;1.90;;;;;;;;;;5088904;28;20020;-68
2023/09/22 04:29:36;;;;;;;4.18;2.13;;;;;;;;;;5088321;28;20075;-69
2023/09/22 04:32:07;;;;;;;3.03;1.52;;;;;;;;;;5084517;28;20024;-70
2023/09/22 04:34:33;;;;;;;4.32;1.92;;;;;;;;;;5073392;28;20649;-69
2023/09/22 04:36:58;;;;;;;3.72;1.70;;;;;;;;;;5085670;28;20047;-69
2023/09/22 04:39:24;;;;;;;3.80;2.00;;;;;;;;;;5085429;28;20074;-69
2023/09/22 04:41:49;;;;;;;4.35;1.73;;;;;;;;;;5085436;28;20039;-70
2023/09/22 04:44:15;;;;;;;4.85;1.90;;;;;;;;;;5077392;28;20442;-70
2023/09/22 04:46:41;;;;;;;3.47;1.70;;;;;;;;;;5080823;28;20051;-69
2023/09/22 04:49:06;;;;;;;4.07;1.67;;;;;;;;;;5086581;28;20539;-70
2023/09/22 04:51:32;;;;;;;3.05;1.48;;;;;;;;;;5089095;28;20020;-70
2023/09/22 04:53:57;;;;;;;3.90;1.30;;;;;;;;;;5088241;28;20052;-69
2023/09/22 04:56:22;;;;;;;4.00;1.38;;;;;;;;;;5088436;28;20028;-69
2023/09/22 04:58:47;;;;;;;4.82;1.60;;;;;;;;;;5085468;28;20516;-70
2023/09/22 05:01:14;;;;;;;4.28;1.27;;;;;;;;;;5091104;28;20024;-69
2023/09/22 05:03:39;;;;;;;2.90;1.23;;;;;;;;;;5084740;28;20024;-70
2023/09/22 05:06:14;;;;;;;3.78;1.45;;;;;;;;;;5087775;28;20024;-69
2023/09/22 05:08:39;;;;;;;4.38;1.60;;;;;;;;;;5086836;28;20070;-70
2023/09/22 05:11:05;;;;;;;5.10;1.25;;;;;;;;;;5087193;28;20028;-70
2023/09/22 05:13:31;;;;;;;4.10;1.48;;;;;;;;;;5088808;28;20424;-70
2023/09/22 05:16:03;;;;;;;5.78;1.30;;;;;;;;;;5090429;28;20028;-70
2023/09/22 05:18:28;;;;;;;3.72;1.33;;;;;;;;;;5076511;28;20056;-70
2023/09/22 05:20:54;;;;;;;3.33;1.48;;;;;;;;;;5089898;28;20518;-70
2023/09/22 05:23:19;;;;;;;6.25;1.92;;;;;;;;;;5091595;28;20562;-69
2023/09/22 05:25:45;;;;;;;3.17;1.33;;;;;;;;;;5086204;28;20371;-69
2023/09/22 05:28:11;;;;;;;4.10;1.67;;;;;;;;;;5082826;28;20028;-70
2023/09/22 05:30:38;;;;;;;3.17;1.35;;;;;;;;;;5079045;28;20455;-70
2023/09/22 05:33:06;;;;;;;2.67;1.30;;;;;;;;;;5083383;28;20034;-70
2023/09/22 05:35:32;;;;;;;5.43;1.55;;;;;;;;;;5079329;28;20020;-70
2023/09/22 05:37:57;;;;;;;3.97;1.60;;;;;;;;;;5085462;28;20020;-70
2023/09/22 05:40:23;;;;;;;3.90;1.40;;;;;;;;;;5080772;28;20032;-70
2023/09/22 05:42:48;;;;;;;2.92;1.17;;;;;;;;;;5094194;28;20378;-69
2023/09/22 05:45:14;;;;;;;4.43;1.60;;;;;;;;;;5091360;28;20024;-71
2023/09/22 05:47:39;;;;;;;6.30;1.42;;;;;;;;;;5093779;28;20435;-70
2023/09/22 05:50:05;;;;;;;3.10;1.58;;;;;;;;;;5083958;28;20027;-70
2023/09/22 05:52:30;;;;;;;3.83;1.48;;;;;;;;;;5059404;28;20036;-69
2023/09/22 05:54:56;;;;;;;5.20;1.45;;;;;;;;;;5081895;28;20084;-70
2023/09/22 05:57:21;;;;;;;4.88;1.60;;;;;;;;;;5074000;28;20027;-69
2023/09/22 05:59:47;;;;;;;2.90;1.30;;;;;;;;;;5082743;28;20489;-70
2023/09/22 06:02:12;;;;;;;4.00;1.58;;;;;;;;;;5078371;28;20024;-70
2023/09/22 06:04:37;;;;;;;5.90;1.88;;;;;;;;;;5088121;28;20020;-70
2023/09/22 06:07:03;;;;;;;3.20;1.50;;;;;;;;;;5087096;28;20395;-70
2023/09/22 06:09:31;;;;;;;3.38;1.48;;;;;;;;;;5081854;28;20051;-70
2023/09/22 06:11:56;;;;;;;3.58;1.60;;;;;;;;;;5078039;28;20035;-70
2023/09/22 06:14:22;;;;;;;4.10;1.48;;;;;;;;;;5081555;28;20024;-69
2023/09/22 06:16:49;;;;;;;3.65;1.58;;;;;;;;;;5083001;28;20044;-69
2023/09/22 06:19:15;;;;;;;4.80;1.58;;;;;;;;;;5083477;28;20118;-70
2023/09/22 06:21:40;;;;;;;5.38;1.52;;;;;;;;;;5076966;28;20451;-70
2023/09/22 06:24:06;;;;;;;2.78;1.73;;;;;;;;;;5080141;28;20070;-69
2023/09/22 06:26:32;;;;;;;3.58;1.70;;;;;;;;;;5076456;28;20029;-70
2023/09/22 06:28:57;;;;;;;2.72;1.30;;;;;;;;;;5079802;28;20017;-70
2023/09/22 06:31:23;;;;;;;2.58;1.35;;;;;;;;;;5076535;28;20123;-70
2023/09/22 06:33:49;;;;;;;6.45;1.70;;;;;;;;;;5089249;28;20043;-69
2023/09/22 06:36:15;;;;;;;4.93;1.80;;;;;;;;;;5089229;28;20071;-70
2023/09/22 06:38:40;;;;;;;4.35;1.15;;;;;;;;;;5088886;28;20056;-69
2023/09/22 06:41:06;;;;;;;2.67;1.20;;;;;;;;;;5074983;28;20044;-70
2023/09/22 06:43:33;;;;;;;2.88;1.25;;;;;;;;;;5083034;28;20481;-70
2023/09/22 06:46:02;;;;;;;4.97;1.20;;;;;;;;;;5075188;28;20031;-70
2023/09/22 06:48:29;;;;;;;3.15;1.20;;;;;;;;;;5084074;28;20057;-69
2023/09/22 06:50:57;;;;;;;6.65;1.45;;;;;;;;;;5085172;28;20430;-69
2023/09/22 06:53:23;;;;;;;4.70;1.40;;;;;;;;;;5091566;28;20031;-70
2023/09/22 06:55:49;;;;;;;4.63;1.92;;;;;;;;;;5090060;28;20024;-69
2023/09/22 06:58:14;;;;;;;4.22;1.60;;;;;;;;;;5086860;28;20585;-70
2023/09/22 07:00:39;;;;;;;3.05;1.60;;;;;;;;;;5080035;28;20028;-69
2023/09/22 07:03:05;;;;;;;5.53;1.13;;;;;;;;;;5074792;28;20024;-70
2023/09/22 07:05:31;;;;;;;5.55;1.65;;;;;;;;;;5076043;28;20046;-69
2023/09/22 07:07:57;;;;;;;2.45;1.20;;;;;;;;;;5074728;28;20021;-70
2023/09/22 07:10:23;;;;;;;2.53;1.27;;;;;;;;;;5080366;28;20024;-69
2023/09/22 07:12:49;;;;;;;4.35;1.05;;;;;;;;;;5082411;28;20024;-69
2023/09/22 07:15:14;;;;;;;3.55;1.20;;;;;;;;;;5076198;28;20107;-69
2023/09/22 07:17:45;;;;;;;4.38;1.23;;;;;;;;;;5080003;28;20459;-69
2023/09/22 07:20:12;;;;;;;3.33;1.17;;;;;;;;;;5079920;28;20090;-70
2023/09/22 07:22:37;;;;;;;3.92;1.33;;;;;;;;;;5089778;28;20474;-73
2023/09/22 07:25:03;;;;;;;3.83;1.10;;;;;;;;;;5092586;28;20024;-70
2023/09/22 07:27:28;;;;;;;3.78;1.40;;;;;;;;;;5088875;28;20078;-68
2023/09/22 07:29:53;;;;;;;2.72;1.17;;;;;;;;;;5078919;28;20036;-69
2023/09/22 07:32:19;;;;;;;4.70;0.90;;;;;;;;;;5087042;28;20060;-68
2023/09/22 07:34:45;;;;;;;2.70;1.20;;;;;;;;;;5090729;28;20054;-67
2023/09/22 07:37:11;;;;;;;5.53;1.23;;;;;;;;;;5089302;28;20127;-69
2023/09/22 07:39:37;;;;;;;4.15;1.08;;;;;;;;;;5089869;28;20043;-68
2023/09/22 07:42:03;;;;;;;4.15;1.15;;;;;;;;;;5086588;28;20057;-70
2023/09/22 07:44:28;;;;;;;2.63;0.85;;;;;;;;;;5088829;28;20032;-69
2023/09/22 07:46:58;;;;;;;3.42;1.00;;;;;;;;;;5087686;28;20035;-69
2023/09/22 07:49:24;;;;;;;1.77;0.80;;;;;;;;;;5091924;28;20526;-69
2023/09/22 07:51:49;;;;;;;3.10;0.98;;;;;;;;;;5091821;28;20099;-69
2023/09/22 07:54:14;;;;;;;2.63;0.77;;;;;;;;;;5077537;28;20509;-69
2023/09/22 07:56:39;;;;;;;3.60;0.93;;;;;;;;;;5092235;28;20020;-69
2023/09/22 07:59:05;;;;;;;5.05;1.00;;;;;;;;;;5076809;28;20399;-69
2023/09/22 08:01:30;;;;;;;3.13;0.90;;;;;;;;;;5079459;28;20024;-69
2023/09/22 08:03:55;;;;;;;3.28;0.85;;;;;;;;;;5072568;28;20139;-69
2023/09/22 08:06:21;;;;;;;2.28;1.00;;;;;;;;;;5078368;28;20463;-68
2023/09/22 08:08:49;;;;;;;2.50;0.70;;;;;;;;;;5091660;28;20034;-68
2023/09/22 08:11:17;;;;;;;3.75;1.30;;;;;;;;;;5071547;28;20115;-69
2023/09/22 08:13:43;;;;;;;3.03;0.90;;;;;;;;;;5072769;28;20028;-67
2023/09/22 08:16:10;;;;;;;3.30;1.13;;;;;;;;;;5073643;28;20041;-68
2023/09/22 08:18:37;;;;;;;2.40;0.80;;;;;;;;;;5080359;28;20034;-69
2023/09/22 08:21:06;;;;;;;4.72;0.98;;;;;;;;;;5081491;28;20016;-69
2023/09/22 08:23:31;;;;;;;2.25;0.82;;;;;;;;;;5090533;28;20016;-68
2023/09/22 08:25:57;;;;;;;3.25;0.90;;;;;;;;;;5081792;28;20032;-69
2023/09/22 08:28:23;;;;;;;2.37;1.07;;;;;;;;;;5088339;28;20027;-69
2023/09/22 08:30:49;;;;;;;3.63;1.10;;;;;;;;;;5078629;28;20279;-69
2023/09/22 08:33:14;;;;;;;2.83;0.90;;;;;;;;;;5083112;28;20035;-69
2023/09/22 08:35:40;;;;;;;2.92;0.70;;;;;;;;;;5080800;28;20030;-69
2023/09/22 08:38:06;;;;;;;3.38;0.80;;;;;;;;;;5087208;28;20032;-69
2023/09/22 08:40:31;;;;;;;2.70;0.93;;;;;;;;;;5082986;28;20052;-69
2023/09/22 08:42:57;;;;;;;1.77;0.80;;;;;;;;;;5078609;28;20036;-67
2023/09/22 08:45:22;;;;;;;2.15;1.13;;;;;;;;;;5087876;28;20043;-69
2023/09/22 08:47:49;;;;;;;3.60;1.13;;;;;;;;;;5085803;28;20024;-69
2023/09/22 08:50:15;;;;;;;3.22;0.70;;;;;;;;;;5078198;28;20024;-69
2023/09/22 08:52:42;;;;;;;2.90;0.90;;;;;;;;;;5066262;28;20506;-69
2023/09/22 08:55:08;;;;;;;3.15;0.80;;;;;;;;;;5084769;28;20031;-68
2023/09/22 08:57:34;;;;;;;4.68;0.77;;;;;;;;;;5082567;28;20020;-69
2023/09/22 08:59:59;;;;;;;2.97;0.80;;;;;;;;;;5082429;28;20031;-69
2023/09/22 09:02:25;;;;;;;1.88;0.63;;;;;;;;;;5078022;28;20082;-69
2023/09/22 09:04:50;;;;;;;2.70;0.70;;;;;;;;;;5079115;28;20097;-68
2023/09/22 09:07:16;;;;;;;5.25;0.85;;;;;;;;;;5078543;28;20024;-69
2023/09/22 09:09:47;;;;;;;2.15;0.68;;;;;;;;;;5076362;28;20031;-69
2023/09/22 09:12:13;;;;;;;2.53;0.90;;;;;;;;;;5078439;28;20476;-69
2023/09/22 09:14:42;;;;;;;2.92;0.70;;;;;;;;;;5078522;28;20035;-70
2023/09/22 09:17:23;;;;;;;3.38;0.80;;;;;;;;;;5078672;28;20056;-68
2023/09/22 09:19:55;;;;;;;4.18;0.82;;;;;;;;;;5084572;28;20048;-68
2023/09/22 09:22:21;;;;;;;2.72;1.00;;;;;;;;;;5092817;28;20035;-68
2023/09/22 09:24:46;;;;;;;6.75;0.75;;;;;;;;;;5080831;28;20391;-68
2023/09/22 09:27:18;;;;;;;1.92;0.68;;;;;;;;;;5092926;28;20176;-68
2023/09/22 09:29:47;;;;;;;3.53;0.85;;;;;;;;;;5085937;28;20025;-67
2023/09/22 09:32:23;;;;;;;2.88;0.63;;;;;;;;;;5087348;28;20039;-68
2023/09/22 09:34:48;;;;;;;1.63;0.50;;;;;;;;;;5081068;28;20475;-67
2023/09/22 09:37:14;;;;;;;3.33;0.90;;;;;;;;;;5087141;28;20020;-68
2023/09/22 09:39:46;;;;;;;2.38;1.00;;;;;;;;;;5085733;28;20024;-67
2023/09/22 09:42:22;;;;;;;2.33;0.60;;;;;;;;;;5092156;28;20063;-67
2023/09/22 09:44:57;;;;;;;3.42;0.85;;;;;;;;;;5081784;28;20020;-68
2023/09/22 09:47:35;;;;;;;3.10;0.75;;;;;;;;;;5089864;28;20050;-67
2023/09/22 09:50:01;;;;;;;1.73;0.50;;;;;;;;;;5076565;28;20027;-67
2023/09/22 09:52:26;;;;;;;2.15;0.68;;;;;;;;;;5089337;28;20031;-69
2023/09/22 09:54:56;;;;;;;4.20;0.73;;;;;;;;;;5074470;28;20028;-69
2023/09/22 09:57:22;;;;;;;2.00;0.57;;;;;;;;;;5079190;28;20044;-69
2023/09/22 09:59:47;;;;;;;2.15;0.85;;;;;;;;;;5085777;28;20383;-68
2023/09/22 10:02:13;;;;;;;2.65;0.75;;;;;;;;;;5075290;28;20025;-68
2023/09/22 10:04:39;;;;;;;2.38;0.70;;;;;;;;;;5074065;28;20067;-68
2023/09/22 10:07:05;;;;;;;2.22;0.82;;;;;;;;;;5086247;28;20028;-68
2023/09/22 10:09:31;;;;;;;2.25;0.70;;;;;;;;;;5078539;28;20546;-68
2023/09/22 10:11:56;;;;;;;3.40;0.80;;;;;;;;;;5088347;28;20557;-67
2023/09/22 10:14:41;;;;;;;2.17;0.52;;;;;;;;;;5090563;28;20134;-68
2023/09/22 10:17:18;;;;;;;2.10;0.80;;;;;;;;;;5078583;28;20029;-68
2023/09/22 10:19:44;;;;;;;1.58;0.47;;;;;;;;;;5082561;28;20020;-68
2023/09/22 10:22:14;;;;;;;3.20;0.70;;;;;;;;;;5090555;28;20047;-68
2023/09/22 10:24:40;;;;;;;3.00;0.77;;;;;;;;;;5083818;28;20055;-68
2023/09/22 10:27:07;;;;;;;3.90;0.70;;;;;;;;;;5086646;28;20020;-68
2023/09/22 10:29:33;;;;;;;1.63;0.63;;;;;;;;;;5085194;28;20374;-68
2023/09/22 10:32:25;;;;;;;4.18;0.73;;;;;;;;;;5073849;28;20099;-68
2023/09/22 10:34:55;;;;;;;1.70;0.50;;;;;;;;;;5073437;28;20479;-67
2023/09/22 10:37:24;;;;;;;2.38;0.85;;;;;;;;;;5089871;28;20065;-68
2023/09/22 10:39:54;;;;;;;3.90;1.13;;;;;;;;;;5092359;28;20032;-67
2023/09/22 10:42:20;;;;;;;2.10;0.60;;;;;;;;;;5073740;28;20086;-69
2023/09/22 10:45:05;;;;;;;2.20;0.80;;;;;;;;;;5072768;28;20119;-68
2023/09/22 10:47:52;;;;;;;4.55;0.88;;;;;;;;;;5074415;28;20032;-68
2023/09/22 10:50:30;;;;;;;2.75;0.90;;;;;;;;;;5091135;28;20032;-68
2023/09/22 10:53:03;;;;;;;2.50;0.80;;;;;;;;;;5080298;28;20437;-70
2023/09/22 10:55:34;;;;;;;3.72;0.90;;;;;;;;;;5079841;28;20434;-69
2023/09/22 10:58:01;;;;;;;4.28;0.88;;;;;;;;;;5075178;28;20494;-69
2023/09/22 11:00:26;;;;;;;3.55;0.98;;;;;;;;;;5077050;28;20028;-69
2023/09/22 11:02:53;;;;;;;1.50;0.40;;;;;;;;;;5085954;28;20043;-70
2023/09/22 11:05:19;;;;;;;2.22;0.80;;;;;;;;;;5083531;28;20027;-69
2023/09/22 11:07:45;;;;;;;3.05;0.77;;;;;;;;;;5075852;28;20066;-69
2023/09/22 11:10:20;;;;;;;2.15;0.65;;;;;;;;;;5086007;28;20028;-66
2023/09/22 11:12:54;;;;;;;2.13;0.60;;;;;;;;;;5089973;28;20539;-67
2023/09/22 11:15:22;;;;;;;3.72;0.98;;;;;;;;;;5087802;28;20034;-69
2023/09/22 11:17:48;;;;;;;2.58;0.80;;;;;;;;;;5090555;28;20020;-70
2023/09/22 11:20:23;;;;;;;3.13;1.05;;;;;;;;;;5084656;28;20030;-72
2023/09/22 11:22:48;;;;;;;1.58;0.63;;;;;;;;;;5075613;28;20133;-69
2023/09/22 11:25:14;;;;;;;3.22;0.70;;;;;;;;;;5080674;28;20538;-70
2023/09/22 11:27:43;;;;;;;2.63;0.70;;;;;;;;;;5087575;28;20020;-68
2023/09/22 11:30:14;;;;;;;2.55;0.50;;;;;;;;;;5081201;28;20052;-69
2023/09/22 11:32:39;;;;;;;2.05;0.85;;;;;;;;;;5081949;28;20113;-68
2023/09/22 11:35:04;;;;;;;1.70;0.50;;;;;;;;;;5084163;28;20112;-69
2023/09/22 11:37:30;;;;;;;1.58;0.68;;;;;;;;;;5091737;28;20026;-69
2023/09/22 11:39:56;;;;;;;2.33;0.47;;;;;;;;;;5091167;28;20024;-69
2023/09/22 11:42:21;;;;;;;2.00;0.60;;;;;;;;;;5089921;28;20023;-69
2023/09/22 11:44:46;;;;;;;2.35;0.95;;;;;;;;;;5052159;28;20270;-69
2023/09/22 11:47:24;;;;;;;2.67;0.70;;;;;;;;;;5049149;28;20024;-68
2023/09/22 11:49:49;;;;;;;1.92;0.55;;;;;;;;;;5049660;28;20914;-68
2023/09/22 11:52:17;;;;;;;1.75;0.70;;;;;;;;;;5049484;28;20044;-69
2023/09/22 11:54:43;;;;;;;2.10;0.60;;;;;;;;;;5051164;28;20047;-68
2023/09/22 11:57:08;;;;;;;2.67;0.55;;;;;;;;;;5085533;28;20643;-68
2023/09/22 11:59:34;;;;;;;3.95;0.60;;;;;;;;;;5068796;28;20158;-69
2023/09/22 12:02:00;;;;;;;2.42;0.63;;;;;;;;;;5052892;28;20495;-68
2023/09/22 12:04:26;;;;;;;2.15;0.77;;;;;;;;;;5091190;28;20039;-69
2023/09/22 12:06:52;;;;;;;3.28;0.60;;;;;;;;;;5087622;28;20472;-68
2023/09/22 12:09:18;;;;;;;2.28;0.90;;;;;;;;;;5077247;28;20378;-69
2023/09/22 12:11:44;;;;;;;2.00;0.70;;;;;;;;;;5084975;28;20079;-69
2023/09/22 12:14:10;;;;;;;1.63;0.63;;;;;;;;;;5082049;28;20494;-69
2023/09/22 12:16:35;;;;;;;5.05;0.70;;;;;;;;;;5081933;28;20060;-69
2023/09/22 12:19:01;;;;;;;1.70;0.47;;;;;;;;;;5089490;28;20062;-68
2023/09/22 12:21:27;;;;;;;3.47;0.70;;;;;;;;;;5089759;28;20016;-68
2023/09/22 12:23:53;;;;;;;1.75;0.70;;;;;;;;;;5084096;28;20579;-68
2023/09/22 12:26:18;;;;;;;1.77;0.57;;;;;;;;;;5071838;28;20099;-68
2023/09/22 12:28:43;;;;;;;1.70;0.60;;;;;;;;;;5071657;28;20490;-68
2023/09/22 12:31:09;;;;;;;3.50;0.90;;;;;;;;;;5071007;28;20387;-69
2023/09/22 12:33:34;;;;;;;2.38;0.68;;;;;;;;;;5070985;28;20694;-69
2023/09/22 12:36:00;;;;;;;2.75;0.80;;;;;;;;;;5070936;28;20028;-69
2023/09/22 12:38:25;;;;;;;3.20;0.80;;;;;;;;;;5091416;28;20458;-68
2023/09/22 12:40:51;;;;;;;5.22;0.75;;;;;;;;;;5090806;28;20020;-69
2023/09/22 12:43:16;;;;;;;3.60;1.00;;;;;;;;;;5090419;28;20036;-69
2023/09/22 12:45:42;;;;;;;2.50;0.80;;;;;;;;;;5089611;28;20028;-68
2023/09/22 12:48:08;;;;;;;2.42;0.90;;;;;;;;;;5091191;28;20047;-68
2023/09/22 12:50:33;;;;;;;2.42;0.70;;;;;;;;;;5077760;28;20468;-68
2023/09/22 12:52:59;;;;;;;1.83;0.68;;;;;;;;;;5083322;28;20024;-68
2023/09/22 12:55:24;;;;;;;2.15;0.85;;;;;;;;;;5076860;28;20511;-68
2023/09/22 12:57:50;;;;;;;1.88;0.68;;;;;;;;;;5088634;28;20485;-67
2023/09/22 13:00:15;;;;;;;2.33;0.60;;;;;;;;;;5077173;28;20497;-69
2023/09/22 13:02:41;;;;;;;5.97;0.82;;;;;;;;;;5077334;28;20028;-68
2023/09/22 13:05:07;;;;;;;3.03;0.75;;;;;;;;;;5074833;28;20418;-68
2023/09/22 13:07:33;;;;;;;2.92;0.70;;;;;;;;;;5077285;28;20066;-68
2023/09/22 13:10:03;;;;;;;2.28;0.65;;;;;;;;;;5039725;28;20523;-69
2023/09/22 13:12:28;;;;;;;1.77;0.60;;;;;;;;;;5045360;28;20035;-67
2023/09/22 13:14:54;;;;;;;3.05;0.70;;;;;;;;;;5034116;28;20078;-67
2023/09/22 13:17:20;;;;;;;2.33;0.80;;;;;;;;;;5043515;28;20048;-68
2023/09/22 13:19:46;;;;;;;3.78;0.90;;;;;;;;;;5079575;28;20029;-68
2023/09/22 13:22:11;;;;;;;2.75;0.93;;;;;;;;;;5085529;28;20077;-68
2023/09/22 13:24:37;;;;;;;2.83;0.93;;;;;;;;;;5090553;28;20023;-68
2023/09/22 13:27:04;;;;;;;1.67;0.55;;;;;;;;;;5085338;28;20017;-68
2023/09/22 13:29:30;;;;;;;3.30;0.65;;;;;;;;;;5086278;28;20031;-68
2023/09/22 13:31:55;;;;;;;2.30;0.80;;;;;;;;;;5083631;28;20028;-68
2023/09/22 13:34:20;;;;;;;3.60;0.73;;;;;;;;;;5083751;28;20020;-68
2023/09/22 13:36:45;;;;;;;2.65;0.90;;;;;;;;;;5083334;28;20343;-68
2023/09/22 13:39:11;;;;;;;3.10;0.70;;;;;;;;;;5089505;28;20069;-68
2023/09/22 13:41:36;;;;;;;1.77;0.70;;;;;;;;;;5077632;28;20020;-68
2023/09/22 13:44:01;;;;;;;3.85;1.10;;;;;;;;;;5050700;28;20854;-67
2023/09/22 13:46:27;;;;;;;4.57;0.70;;;;;;;;;;5050001;28;20027;-69
2023/09/22 13:48:52;;;;;;;2.35;0.82;;;;;;;;;;5042289;28;20085;-71
2023/09/22 13:51:17;;;;;;;6.53;1.00;;;;;;;;;;5047744;28;20027;-70
2023/09/22 13:53:43;;;;;;;3.83;1.05;;;;;;;;;;5048918;28;20923;-68
2023/09/22 13:56:16;;;;;;;3.08;0.90;;;;;;;;;;5072599;28;20062;-71
2023/09/22 13:58:41;;;;;;;4.18;1.00;;;;;;;;;;5073867;28;20020;-68
2023/09/22 14:01:13;;;;;;;4.35;1.20;;;;;;;;;;5074583;28;20017;-68
2023/09/22 14:03:39;;;;;;;4.00;0.98;;;;;;;;;;5074046;28;20048;-67
2023/09/22 14:06:04;;;;;;;7.30;1.30;;;;;;;;;;5087722;28;20054;-67
2023/09/22 14:08:30;;;;;;;3.17;0.88;;;;;;;;;;5075476;28;20028;-67
2023/09/22 14:10:56;;;;;;;4.32;1.27;;;;;;;;;;5070725;28;20031;-67
2023/09/22 14:13:21;;;;;;;3.63;1.38;;;;;;;;;;5082194;28;20035;-67
2023/09/22 14:15:46;;;;;;;5.15;2.25;;;;;;;;;;5075765;28;20025;-70
2023/09/22 14:18:14;;;;;;;4.18;1.50;;;;;;;;;;5076558;28;20032;-67
2023/09/22 14:20:43;;;;;;;5.18;2.00;;;;;;;;;;5081171;28;20034;-68
2023/09/22 14:23:08;;;;;;;4.05;2.00;;;;;;;;;;5081817;28;20044;-68
2023/09/22 14:25:37;;;;;;;6.35;2.40;;;;;;;;;;5085812;28;20415;-68
2023/09/22 14:28:03;;;;;;;4.10;1.98;;;;;;;;;;5086065;28;20032;-68
2023/09/22 14:30:28;;;;;;;4.10;2.05;;;;;;;;;;5084862;28;20020;-68
2023/09/22 14:32:54;;;;;;;4.82;2.47;;;;;;;;;;5084300;28;20044;-69
2023/09/22 14:35:19;;;;;;;4.80;2.33;;;;;;;;;;5090478;28;20114;-68
2023/09/22 14:37:45;;;;;;;6.03;2.22;;;;;;;;;;5089821;28;20032;-69
2023/09/22 14:40:11;;;;;;;5.55;2.13;;;;;;;;;;5092135;28;20067;-68